createdAt,value
2018-10-21T00:00:10.613Z,8.45
2018-10-21T00:01:10.776Z,8.47
2018-10-21T00:02:10.534Z,8.52
2018-10-21T00:03:10.473Z,8.45
2018-10-21T00:04:10.270Z,8.43
2018-10-21T00:05:10.183Z,8.40
2018-10-21T00:06:10.113Z,8.38
2018-10-21T00:07:10.025Z,8.36
2018-10-21T00:08:09.947Z,8.36
2018-10-21T00:09:09.964Z,8.34
2018-10-21T00:10:09.776Z,8.37
2018-10-21T00:11:09.704Z,8.38
2018-10-21T00:12:09.613Z,8.36
2018-10-21T00:13:09.526Z,8.36
2018-10-21T00:14:09.446Z,8.40
2018-10-21T00:15:09.390Z,8.40
2018-10-21T00:16:09.276Z,8.38
2018-10-21T00:17:09.201Z,8.29
2018-10-21T00:18:09.110Z,8.33
2018-10-21T00:19:09.022Z,8.28
2018-10-21T00:20:08.949Z,8.26
2018-10-21T00:21:08.901Z,8.23
2018-10-21T00:22:08.778Z,8.26
2018-10-21T00:23:08.703Z,8.25
2018-10-21T00:24:08.611Z,8.23
2018-10-21T00:25:08.522Z,8.28
2018-10-21T00:26:08.453Z,8.23
2018-10-21T00:27:08.441Z,8.22
2018-10-21T00:28:08.291Z,8.18
2018-10-21T00:29:08.204Z,8.28
2018-10-21T00:30:08.113Z,8.25
2018-10-21T00:31:08.026Z,8.19
2018-10-21T00:32:07.951Z,8.25
2018-10-21T00:33:07.921Z,8.25
2018-10-21T00:34:07.780Z,8.18
2018-10-21T00:35:07.721Z,8.28
2018-10-21T00:36:07.616Z,8.19
2018-10-21T00:37:07.528Z,8.18
2018-10-21T00:38:07.451Z,8.15
2018-10-21T00:39:07.411Z,8.15
2018-10-21T00:40:07.283Z,8.08
2018-10-21T00:41:07.218Z,8.15
2018-10-21T00:42:07.114Z,8.11
2018-10-21T00:43:07.027Z,8.10
2018-10-21T00:44:06.949Z,8.15
2018-10-21T00:45:06.922Z,8.05
2018-10-21T00:46:06.779Z,8.04
2018-10-21T00:47:06.716Z,8.07
2018-10-21T00:48:06.613Z,8.04
2018-10-21T00:49:06.526Z,8.04
2018-10-21T00:50:06.457Z,8.10
2018-10-21T00:51:06.407Z,8.05
2018-10-21T00:52:06.297Z,8.05
2018-10-21T00:53:06.220Z,8.04
2018-10-21T00:54:06.116Z,8.05
2018-10-21T00:55:06.030Z,8.04
2018-10-21T00:56:06.255Z,8.12
2018-10-21T00:57:05.894Z,8.12
2018-10-21T00:58:05.777Z,8.07
2018-10-21T00:59:05.700Z,8.15
2018-10-21T01:00:05.616Z,8.12
2018-10-21T01:01:05.832Z,8.11
2018-10-21T01:02:05.471Z,8.07
2018-10-21T01:03:05.423Z,8.02
2018-10-21T01:04:05.354Z,8.04
2018-10-21T01:05:05.205Z,8.04
2018-10-21T01:06:05.121Z,8.01
2018-10-21T01:07:05.035Z,8.04
2018-10-21T01:08:04.957Z,8.05
2018-10-21T01:09:04.918Z,8.05
2018-10-21T01:10:04.779Z,8.04
2018-10-21T01:11:04.702Z,7.95
2018-10-21T01:12:04.621Z,8.02
2018-10-21T01:13:04.579Z,8.07
2018-10-21T01:14:04.455Z,8.01
2018-10-21T01:15:04.399Z,8.05
2018-10-21T01:16:04.279Z,7.98
2018-10-21T01:17:04.203Z,7.90
2018-10-21T01:18:04.120Z,7.98
2018-10-21T01:19:04.033Z,8.00
2018-10-21T01:20:03.953Z,7.97
2018-10-21T01:21:03.874Z,7.90
2018-10-21T01:22:03.783Z,7.89
2018-10-21T01:23:03.708Z,7.90
2018-10-21T01:24:03.622Z,7.89
2018-10-21T01:25:03.535Z,7.92
2018-10-21T01:26:03.456Z,7.95
2018-10-21T01:27:03.401Z,7.85
2018-10-21T01:28:03.283Z,7.90
2018-10-21T01:29:03.209Z,7.87
2018-10-21T01:30:03.118Z,7.95
2018-10-21T01:31:03.048Z,7.87
2018-10-21T01:32:02.955Z,7.82
2018-10-21T01:33:02.929Z,7.71
2018-10-21T01:34:02.786Z,7.72
2018-10-21T01:35:02.711Z,7.77
2018-10-21T01:36:02.623Z,7.69
2018-10-21T01:37:02.610Z,7.71
2018-10-21T01:38:02.509Z,7.79
2018-10-21T01:39:02.378Z,7.74
2018-10-21T01:40:02.299Z,7.69
2018-10-21T01:41:02.211Z,7.74
2018-10-21T01:42:02.121Z,7.64
2018-10-21T01:43:02.033Z,7.64
2018-10-21T01:44:01.960Z,7.69
2018-10-21T01:45:01.930Z,7.64
2018-10-21T01:46:01.784Z,7.68
2018-10-21T01:47:01.705Z,7.68
2018-10-21T01:48:01.621Z,7.60
2018-10-21T01:49:01.533Z,7.68
2018-10-21T01:50:01.462Z,7.63
2018-10-21T01:51:01.432Z,7.55
2018-10-21T01:52:01.285Z,7.61
2018-10-21T01:53:01.209Z,7.63
2018-10-21T01:54:01.127Z,7.63
2018-10-21T01:55:01.053Z,7.67
2018-10-21T01:56:00.961Z,7.58
2018-10-21T01:57:00.884Z,7.60
2018-10-21T01:58:00.783Z,7.60
2018-10-21T01:59:00.707Z,7.57
2018-10-21T02:00:00.627Z,7.50
2018-10-21T02:01:00.539Z,7.49
2018-10-21T02:02:00.448Z,7.43
2018-10-21T02:03:00.378Z,7.43
2018-10-21T02:04:00.283Z,7.34
2018-10-21T02:05:00.196Z,7.37
2018-10-21T02:06:00.125Z,7.31
2018-10-21T02:07:00.040Z,7.30
2018-10-21T02:07:59.946Z,7.24
2018-10-21T02:08:59.913Z,7.27
2018-10-21T02:09:59.795Z,7.24
2018-10-21T02:10:59.951Z,7.27
2018-10-21T02:11:59.628Z,7.17
2018-10-21T02:12:59.540Z,7.24
2018-10-21T02:13:59.508Z,7.15
2018-10-21T02:14:59.382Z,7.21
2018-10-21T02:15:59.289Z,7.23
2018-10-21T02:16:59.202Z,7.17
2018-10-21T02:17:59.122Z,7.07
2018-10-21T02:18:59.034Z,7.17
2018-10-21T02:19:58.953Z,7.09
2018-10-21T02:20:58.920Z,7.15
2018-10-21T02:21:58.791Z,7.15
2018-10-21T02:22:58.705Z,7.20
2018-10-21T02:23:58.614Z,7.13
2018-10-21T02:24:58.537Z,7.10
2018-10-21T02:25:58.455Z,7.10
2018-10-21T02:26:58.522Z,7.12
2018-10-21T02:27:58.289Z,7.20
2018-10-21T02:28:58.204Z,7.15
2018-10-21T02:29:58.110Z,7.21
2018-10-21T02:30:58.037Z,7.23
2018-10-21T02:31:57.956Z,7.24
2018-10-21T02:32:57.907Z,7.27
2018-10-21T02:33:57.788Z,7.32
2018-10-21T02:34:57.703Z,7.31
2018-10-21T02:35:57.625Z,7.32
2018-10-21T02:36:57.525Z,7.30
2018-10-21T02:37:57.457Z,7.30
2018-10-21T02:38:57.402Z,7.28
2018-10-21T02:39:57.281Z,7.16
2018-10-21T02:40:57.210Z,7.20
2018-10-21T02:41:57.114Z,7.16
2018-10-21T02:42:57.028Z,7.20
2018-10-21T02:43:56.958Z,7.12
2018-10-21T02:44:56.902Z,7.15
2018-10-21T02:45:56.780Z,6.97
2018-10-21T02:46:56.708Z,7.13
2018-10-21T02:47:56.614Z,6.98
2018-10-21T02:48:56.535Z,7.13
2018-10-21T02:49:56.457Z,7.03
2018-10-21T02:50:56.376Z,6.97
2018-10-21T02:51:56.282Z,6.99
2018-10-21T02:52:56.193Z,6.99
2018-10-21T02:53:56.115Z,7.03
2018-10-21T02:54:56.028Z,6.99
2018-10-21T02:55:55.943Z,6.94
2018-10-21T02:56:55.886Z,6.98
2018-10-21T02:57:55.777Z,7.03
2018-10-21T02:58:55.692Z,6.80
2018-10-21T02:59:55.620Z,6.97
2018-10-21T03:00:55.538Z,6.94
2018-10-21T03:01:55.449Z,6.91
2018-10-21T03:02:55.391Z,6.94
2018-10-21T03:03:55.277Z,6.92
2018-10-21T03:04:55.190Z,6.92
2018-10-21T03:05:55.106Z,6.89
2018-10-21T03:06:55.036Z,6.89
2018-10-21T03:07:54.947Z,6.94
2018-10-21T03:08:54.872Z,6.85
2018-10-21T03:09:54.769Z,6.84
2018-10-21T03:10:54.742Z,6.81
2018-10-21T03:11:54.612Z,6.74
2018-10-21T03:12:54.522Z,6.77
2018-10-21T03:13:54.443Z,6.80
2018-10-21T03:14:54.377Z,6.81
2018-10-21T03:15:54.266Z,6.76
2018-10-21T03:16:54.191Z,6.80
2018-10-21T03:17:54.111Z,6.80
2018-10-21T03:18:54.020Z,6.71
2018-10-21T03:19:53.945Z,6.73
2018-10-21T03:20:54.109Z,6.64
2018-10-21T03:21:53.775Z,6.76
2018-10-21T03:22:53.687Z,6.67
2018-10-21T03:23:53.609Z,6.62
2018-10-21T03:24:53.521Z,6.58
2018-10-21T03:25:53.433Z,6.69
2018-10-21T03:26:53.357Z,6.59
2018-10-21T03:27:53.271Z,6.64
2018-10-21T03:28:53.187Z,6.54
2018-10-21T03:29:53.093Z,6.55
2018-10-21T03:30:53.019Z,6.69
2018-10-21T03:31:52.936Z,6.64
2018-10-21T03:32:52.913Z,6.71
2018-10-21T03:33:52.813Z,6.59
2018-10-21T03:34:52.693Z,6.69
2018-10-21T03:35:52.593Z,6.66
2018-10-21T03:36:52.507Z,6.70
2018-10-21T03:37:52.440Z,6.61
2018-10-21T03:38:52.347Z,6.62
2018-10-21T03:39:52.264Z,6.67
2018-10-21T03:40:52.189Z,6.62
2018-10-21T03:41:52.096Z,6.64
2018-10-21T03:42:52.009Z,6.62
2018-10-21T03:43:51.937Z,6.64
2018-10-21T03:44:51.848Z,6.56
2018-10-21T03:45:52.058Z,6.56
2018-10-21T03:46:51.683Z,6.55
2018-10-21T03:47:51.597Z,6.61
2018-10-21T03:48:51.515Z,6.59
2018-10-21T03:49:51.430Z,6.52
2018-10-21T03:50:51.364Z,6.54
2018-10-21T03:51:51.258Z,6.56
2018-10-21T03:52:51.170Z,6.55
2018-10-21T03:53:51.089Z,6.59
2018-10-21T03:54:51.012Z,6.58
2018-10-21T03:55:50.929Z,6.56
2018-10-21T03:56:50.839Z,6.55
2018-10-21T03:57:50.762Z,6.64
2018-10-21T03:58:50.672Z,6.56
2018-10-21T03:59:50.590Z,6.64
2018-10-21T04:00:50.515Z,6.61
2018-10-21T04:01:50.423Z,6.58
2018-10-21T04:02:50.336Z,6.58
2018-10-21T04:03:50.246Z,6.58
2018-10-21T04:04:50.171Z,6.56
2018-10-21T04:05:50.089Z,6.62
2018-10-21T04:06:50.001Z,6.58
2018-10-21T04:07:49.923Z,6.55
2018-10-21T04:08:49.840Z,6.55
2018-10-21T04:09:49.766Z,6.58
2018-10-21T04:10:49.916Z,6.55
2018-10-21T04:11:49.595Z,6.49
2018-10-21T04:12:49.501Z,6.49
2018-10-21T04:13:49.410Z,6.41
2018-10-21T04:14:49.324Z,6.43
2018-10-21T04:15:49.270Z,6.46
2018-10-21T04:16:49.165Z,6.46
2018-10-21T04:17:49.072Z,6.41
2018-10-21T04:18:48.999Z,6.36
2018-10-21T04:19:48.913Z,6.34
2018-10-21T04:20:48.825Z,6.31
2018-10-21T04:21:48.746Z,6.31
2018-10-21T04:22:48.668Z,6.28
2018-10-21T04:23:48.573Z,6.25
2018-10-21T04:24:48.493Z,6.12
2018-10-21T04:25:48.416Z,6.19
2018-10-21T04:26:48.327Z,6.27
2018-10-21T04:27:48.246Z,6.28
2018-10-21T04:28:48.169Z,6.27
2018-10-21T04:29:48.076Z,6.12
2018-10-21T04:30:47.991Z,6.14
2018-10-21T04:31:47.906Z,6.15
2018-10-21T04:32:47.831Z,6.06
2018-10-21T04:33:47.740Z,6.08
2018-10-21T04:34:47.652Z,6.03
2018-10-21T04:35:47.814Z,6.08
2018-10-21T04:36:47.488Z,6.03
2018-10-21T04:37:47.404Z,6.06
2018-10-21T04:38:47.318Z,6.01
2018-10-21T04:39:47.240Z,5.99
2018-10-21T04:40:47.152Z,5.97
2018-10-21T04:41:47.070Z,5.85
2018-10-21T04:42:46.999Z,5.83
2018-10-21T04:43:46.905Z,5.96
2018-10-21T04:44:46.817Z,5.89
2018-10-21T04:45:46.725Z,5.96
2018-10-21T04:46:46.797Z,5.81
2018-10-21T04:47:46.564Z,5.78
2018-10-21T04:48:46.490Z,5.81
2018-10-21T04:49:46.393Z,5.79
2018-10-21T04:50:46.319Z,5.76
2018-10-21T04:51:46.232Z,5.78
2018-10-21T04:52:46.146Z,5.86
2018-10-21T04:53:46.054Z,5.89
2018-10-21T04:54:45.979Z,5.83
2018-10-21T04:55:45.895Z,5.81
2018-10-21T04:56:45.806Z,5.76
2018-10-21T04:57:45.716Z,5.78
2018-10-21T04:58:45.647Z,5.76
2018-10-21T04:59:45.554Z,5.71
2018-10-21T05:00:45.530Z,5.71
2018-10-21T05:01:45.397Z,5.71
2018-10-21T05:02:45.309Z,5.67
2018-10-21T05:03:45.218Z,5.64
2018-10-21T05:04:45.130Z,5.63
2018-10-21T05:05:45.060Z,5.60
2018-10-21T05:06:44.973Z,5.63
2018-10-21T05:07:44.883Z,5.60
2018-10-21T05:08:44.799Z,5.60
2018-10-21T05:09:44.716Z,5.60
2018-10-21T05:10:44.628Z,5.60
2018-10-21T05:11:44.548Z,5.57
2018-10-21T05:12:44.473Z,5.63
2018-10-21T05:13:44.381Z,5.57
2018-10-21T05:14:44.294Z,5.53
2018-10-21T05:15:44.204Z,5.57
2018-10-21T05:16:44.142Z,5.54
2018-10-21T05:17:44.047Z,5.56
2018-10-21T05:18:43.971Z,5.56
2018-10-21T05:19:43.868Z,5.64
2018-10-21T05:20:43.793Z,5.53
2018-10-21T05:21:43.708Z,5.58
2018-10-21T05:22:43.622Z,5.54
2018-10-21T05:23:43.549Z,5.57
2018-10-21T05:24:43.474Z,5.56
2018-10-21T05:25:43.373Z,5.48
2018-10-21T05:26:43.284Z,5.53
2018-10-21T05:27:43.198Z,5.51
2018-10-21T05:28:43.124Z,5.60
2018-10-21T05:29:43.031Z,5.53
2018-10-21T05:30:42.946Z,5.54
2018-10-21T05:31:42.870Z,5.51
2018-10-21T05:32:42.783Z,5.49
2018-10-21T05:33:42.701Z,5.46
2018-10-21T05:34:42.613Z,5.51
2018-10-21T05:35:42.535Z,5.57
2018-10-21T05:36:42.447Z,5.58
2018-10-21T05:37:42.408Z,5.64
2018-10-21T05:38:42.276Z,5.56
2018-10-21T05:39:42.200Z,5.67
2018-10-21T05:40:42.208Z,5.61
2018-10-21T05:41:42.020Z,5.57
2018-10-21T05:42:41.932Z,5.60
2018-10-21T05:43:41.865Z,5.63
2018-10-21T05:44:41.777Z,5.60
2018-10-21T05:45:41.684Z,5.58
2018-10-21T05:46:41.657Z,5.68
2018-10-21T05:47:41.521Z,5.68
2018-10-21T05:48:41.432Z,5.65
2018-10-21T05:49:41.351Z,5.60
2018-10-21T05:50:41.262Z,5.65
2018-10-21T05:51:41.185Z,5.65
2018-10-21T05:52:41.099Z,5.65
2018-10-21T05:53:41.015Z,5.71
2018-10-21T05:54:40.928Z,5.64
2018-10-21T05:55:40.851Z,5.60
2018-10-21T05:56:40.763Z,5.64
2018-10-21T05:57:40.708Z,5.61
2018-10-21T05:58:40.584Z,5.65
2018-10-21T05:59:40.519Z,5.60
2018-10-21T06:00:40.431Z,5.60
2018-10-21T06:01:40.336Z,5.57
2018-10-21T06:02:40.259Z,5.56
2018-10-21T06:03:40.173Z,5.49
2018-10-21T06:04:40.085Z,5.48
2018-10-21T06:05:40.002Z,5.68
2018-10-21T06:06:39.915Z,5.67
2018-10-21T06:07:39.835Z,5.57
2018-10-21T06:08:39.748Z,5.60
2018-10-21T06:09:39.664Z,5.63
2018-10-21T06:10:39.590Z,5.58
2018-10-21T06:11:39.505Z,5.71
2018-10-21T06:12:39.417Z,5.71
2018-10-21T06:13:39.326Z,5.74
2018-10-21T06:14:39.251Z,5.68
2018-10-21T06:15:39.188Z,5.72
2018-10-21T06:16:39.084Z,5.74
2018-10-21T06:17:38.986Z,5.68
2018-10-21T06:18:38.911Z,5.72
2018-10-21T06:19:38.829Z,5.65
2018-10-21T06:20:38.739Z,5.67
2018-10-21T06:21:38.656Z,5.68
2018-10-21T06:22:38.586Z,5.74
2018-10-21T06:23:38.538Z,5.67
2018-10-21T06:24:38.401Z,5.67
2018-10-21T06:25:38.318Z,5.74
2018-10-21T06:26:38.258Z,5.71
2018-10-21T06:27:38.199Z,5.74
2018-10-21T06:28:38.068Z,5.78
2018-10-21T06:29:37.978Z,5.78
2018-10-21T06:30:37.900Z,5.78
2018-10-21T06:31:37.819Z,5.82
2018-10-21T06:32:37.735Z,5.83
2018-10-21T06:33:37.657Z,5.86
2018-10-21T06:34:37.565Z,5.83
2018-10-21T06:35:37.727Z,5.91
2018-10-21T06:36:37.419Z,5.94
2018-10-21T06:37:37.317Z,5.85
2018-10-21T06:38:37.233Z,5.94
2018-10-21T06:39:37.144Z,6.01
2018-10-21T06:40:37.051Z,5.99
2018-10-21T06:41:36.982Z,5.96
2018-10-21T06:42:36.893Z,5.99
2018-10-21T06:43:36.809Z,6.04
2018-10-21T06:44:36.720Z,5.97
2018-10-21T06:45:36.712Z,6.11
2018-10-21T06:46:36.554Z,6.12
2018-10-21T06:47:36.468Z,6.19
2018-10-21T06:48:36.394Z,6.14
2018-10-21T06:49:36.304Z,6.28
2018-10-21T06:50:36.227Z,6.25
2018-10-21T06:51:36.142Z,6.18
2018-10-21T06:52:36.055Z,6.22
2018-10-21T06:53:35.983Z,6.33
2018-10-21T06:54:35.884Z,6.31
2018-10-21T06:55:35.800Z,6.34
2018-10-21T06:56:35.798Z,6.41
2018-10-21T06:57:35.656Z,6.49
2018-10-21T06:58:35.543Z,6.48
2018-10-21T06:59:35.466Z,6.56
2018-10-21T07:00:35.379Z,6.51
2018-10-21T07:01:35.295Z,6.55
2018-10-21T07:02:35.209Z,6.64
2018-10-21T07:03:35.130Z,6.59
2018-10-21T07:04:35.096Z,6.69
2018-10-21T07:05:34.962Z,6.81
2018-10-21T07:06:34.887Z,6.80
2018-10-21T07:07:34.796Z,6.79
2018-10-21T07:08:34.709Z,6.88
2018-10-21T07:09:34.618Z,6.92
2018-10-21T07:10:34.542Z,6.94
2018-10-21T07:11:34.467Z,6.95
2018-10-21T07:12:34.373Z,6.95
2018-10-21T07:13:34.292Z,7.02
2018-10-21T07:14:34.206Z,7.05
2018-10-21T07:15:34.207Z,7.02
2018-10-21T07:16:34.151Z,7.15
2018-10-21T07:17:33.968Z,7.16
2018-10-21T07:18:33.875Z,7.23
2018-10-21T07:19:33.785Z,7.25
2018-10-21T07:20:33.707Z,7.28
2018-10-21T07:21:33.638Z,7.31
2018-10-21T07:22:33.537Z,7.48
2018-10-21T07:23:33.471Z,7.50
2018-10-21T07:24:33.375Z,7.45
2018-10-21T07:25:33.284Z,7.52
2018-10-21T07:26:33.209Z,7.61
2018-10-21T07:27:33.125Z,7.63
2018-10-21T07:28:33.075Z,7.67
2018-10-21T07:29:32.949Z,7.67
2018-10-21T07:30:32.875Z,7.61
2018-10-21T07:31:32.782Z,7.82
2018-10-21T07:32:32.695Z,7.93
2018-10-21T07:33:32.636Z,8.00
2018-10-21T07:34:32.542Z,8.00
2018-10-21T07:35:32.448Z,8.08
2018-10-21T07:36:32.467Z,8.04
2018-10-21T07:37:32.297Z,8.10
2018-10-21T07:38:32.202Z,8.04
2018-10-21T07:39:32.124Z,8.16
2018-10-21T07:40:32.038Z,8.18
2018-10-21T07:41:31.945Z,8.20
2018-10-21T07:42:31.870Z,8.25
2018-10-21T07:43:31.790Z,8.22
2018-10-21T07:44:31.702Z,8.22
2018-10-21T07:45:31.621Z,8.36
2018-10-21T07:46:31.534Z,8.38
2018-10-21T07:47:31.462Z,8.44
2018-10-21T07:48:31.374Z,8.47
2018-10-21T07:49:31.291Z,8.63
2018-10-21T07:50:31.204Z,8.63
2018-10-21T07:51:31.122Z,8.68
2018-10-21T07:52:31.034Z,8.70
2018-10-21T07:53:30.951Z,8.70
2018-10-21T07:54:30.876Z,8.73
2018-10-21T07:55:30.809Z,8.92
2018-10-21T07:56:30.705Z,8.98
2018-10-21T07:57:30.625Z,8.98
2018-10-21T07:58:30.538Z,8.96
2018-10-21T07:59:30.465Z,9.02
2018-10-21T08:00:30.377Z,9.14
2018-10-21T08:01:30.324Z,9.17
2018-10-21T08:02:30.200Z,9.31
2018-10-21T08:03:30.127Z,9.33
2018-10-21T08:04:30.042Z,9.38
2018-10-21T08:05:30.268Z,9.46
2018-10-21T08:06:29.879Z,9.46
2018-10-21T08:07:29.787Z,9.51
2018-10-21T08:08:29.773Z,9.54
2018-10-21T08:09:29.629Z,9.76
2018-10-21T08:10:29.791Z,10.05
2018-10-21T08:11:29.468Z,10.15
2018-10-21T08:12:29.380Z,10.23
2018-10-21T08:13:29.290Z,10.25
2018-10-21T08:14:29.255Z,10.40
2018-10-21T08:15:29.131Z,10.42
2018-10-21T08:16:29.065Z,10.56
2018-10-21T08:17:28.965Z,10.59
2018-10-21T08:18:28.877Z,10.53
2018-10-21T08:19:28.799Z,10.60
2018-10-21T08:20:28.713Z,10.59
2018-10-21T08:21:28.642Z,10.71
2018-10-21T08:22:28.555Z,10.63
2018-10-21T08:23:28.465Z,10.74
2018-10-21T08:24:28.397Z,10.70
2018-10-21T08:25:28.307Z,10.70
2018-10-21T08:26:28.232Z,10.89
2018-10-21T08:27:28.143Z,10.91
2018-10-21T08:28:28.055Z,11.02
2018-10-21T08:29:27.976Z,11.15
2018-10-21T08:30:27.890Z,11.17
2018-10-21T08:31:27.818Z,11.11
2018-10-21T08:32:27.730Z,11.28
2018-10-21T08:33:27.639Z,11.42
2018-10-21T08:34:27.564Z,11.49
2018-10-21T08:35:27.728Z,11.65
2018-10-21T08:36:27.405Z,11.90
2018-10-21T08:37:27.321Z,12.35
2018-10-21T08:38:27.235Z,12.74
2018-10-21T08:39:27.151Z,13.29
2018-10-21T08:40:27.066Z,13.89
2018-10-21T08:41:26.994Z,14.39
2018-10-21T08:42:26.906Z,14.89
2018-10-21T08:43:26.834Z,15.36
2018-10-21T08:44:26.746Z,15.87
2018-10-21T08:45:26.654Z,16.24
2018-10-21T08:46:26.732Z,16.58
2018-10-21T08:47:26.497Z,16.86
2018-10-21T08:48:26.424Z,16.98
2018-10-21T08:49:26.390Z,17.11
2018-10-21T08:50:26.255Z,17.03
2018-10-21T08:51:26.166Z,17.15
2018-10-21T08:52:26.092Z,17.18
2018-10-21T08:53:26.007Z,17.07
2018-10-21T08:54:25.933Z,16.93
2018-10-21T08:55:25.844Z,16.73
2018-10-21T08:56:25.769Z,16.71
2018-10-21T08:57:25.687Z,16.49
2018-10-21T08:58:25.610Z,16.45
2018-10-21T08:59:25.521Z,16.27
2018-10-21T09:00:25.446Z,16.09
2018-10-21T09:01:25.355Z,15.89
2018-10-21T09:02:25.292Z,14.51
2018-10-21T09:03:25.206Z,14.29
2018-10-21T09:04:25.120Z,14.40
2018-10-21T09:05:25.047Z,14.37
2018-10-21T09:06:24.958Z,14.50
2018-10-21T09:07:24.886Z,14.89
2018-10-21T09:08:24.799Z,14.54
2018-10-21T09:09:24.721Z,13.97
2018-10-21T09:10:24.652Z,13.91
2018-10-21T09:11:24.562Z,13.97
2018-10-21T09:12:24.484Z,14.14
2018-10-21T09:13:24.396Z,14.17
2018-10-21T09:14:24.319Z,14.00
2018-10-21T09:15:24.236Z,13.78
2018-10-21T09:16:24.197Z,13.73
2018-10-21T09:17:24.086Z,13.70
2018-10-21T09:18:24.003Z,13.49
2018-10-21T09:19:23.910Z,13.59
2018-10-21T09:20:23.832Z,13.45
2018-10-21T09:21:23.754Z,13.51
2018-10-21T09:22:23.676Z,13.78
2018-10-21T09:23:23.598Z,13.67
2018-10-21T09:24:23.511Z,13.39
2018-10-21T09:25:23.434Z,13.69
2018-10-21T09:26:23.343Z,13.57
2018-10-21T09:27:23.275Z,13.63
2018-10-21T09:28:23.189Z,13.85
2018-10-21T09:29:23.108Z,13.62
2018-10-21T09:30:23.022Z,13.85
2018-10-21T09:31:22.946Z,13.52
2018-10-21T09:32:22.857Z,13.70
2018-10-21T09:33:22.839Z,13.79
2018-10-21T09:34:22.705Z,13.73
2018-10-21T09:35:22.620Z,13.77
2018-10-21T09:36:22.533Z,13.84
2018-10-21T09:37:22.477Z,13.79
2018-10-21T09:38:22.375Z,13.87
2018-10-21T09:39:22.301Z,13.91
2018-10-21T09:40:22.276Z,13.99
2018-10-21T09:41:22.124Z,13.88
2018-10-21T09:42:22.058Z,13.67
2018-10-21T09:43:21.964Z,13.63
2018-10-21T09:44:21.888Z,13.84
2018-10-21T09:45:21.797Z,14.07
2018-10-21T09:46:21.724Z,14.28
2018-10-21T09:47:21.637Z,14.20
2018-10-21T09:48:21.561Z,14.15
2018-10-21T09:49:21.481Z,14.18
2018-10-21T09:50:21.404Z,14.24
2018-10-21T09:51:21.312Z,14.40
2018-10-21T09:52:21.237Z,14.33
2018-10-21T09:53:21.166Z,14.45
2018-10-21T09:54:21.079Z,14.62
2018-10-21T09:55:21.002Z,14.58
2018-10-21T09:56:20.916Z,14.65
2018-10-21T09:57:20.823Z,14.77
2018-10-21T09:58:20.839Z,14.94
2018-10-21T09:59:20.666Z,15.07
2018-10-21T10:00:20.842Z,15.36
2018-10-21T10:01:20.501Z,16.01
2018-10-21T10:02:20.426Z,16.24
2018-10-21T10:03:20.336Z,16.50
2018-10-21T10:04:20.284Z,16.49
2018-10-21T10:05:20.262Z,16.34
2018-10-21T10:06:20.103Z,16.25
2018-10-21T10:07:20.071Z,16.43
2018-10-21T10:08:19.952Z,16.41
2018-10-21T10:09:19.856Z,16.70
2018-10-21T10:10:19.790Z,16.75
2018-10-21T10:11:19.704Z,16.08
2018-10-21T10:12:19.615Z,15.41
2018-10-21T10:13:19.610Z,15.50
2018-10-21T10:14:19.453Z,15.62
2018-10-21T10:15:19.381Z,16.12
2018-10-21T10:16:19.294Z,16.30
2018-10-21T10:17:19.214Z,16.20
2018-10-21T10:18:19.127Z,16.02
2018-10-21T10:19:19.094Z,15.94
2018-10-21T10:20:19.213Z,15.87
2018-10-21T10:21:18.891Z,15.96
2018-10-21T10:22:18.820Z,15.97
2018-10-21T10:23:18.786Z,16.05
2018-10-21T10:24:18.657Z,15.78
2018-10-21T10:25:18.666Z,15.07
2018-10-21T10:26:18.492Z,15.21
2018-10-21T10:27:18.410Z,15.41
2018-10-21T10:28:18.423Z,15.34
2018-10-21T10:29:18.253Z,15.54
2018-10-21T10:30:18.231Z,15.68
2018-10-21T10:31:18.153Z,15.87
2018-10-21T10:32:18.011Z,15.93
2018-10-21T10:33:17.926Z,15.92
2018-10-21T10:34:17.954Z,15.76
2018-10-21T10:35:17.768Z,15.84
2018-10-21T10:36:17.750Z,16.02
2018-10-21T10:37:17.609Z,16.04
2018-10-21T10:38:17.533Z,16.11
2018-10-21T10:39:17.440Z,16.39
2018-10-21T10:40:17.428Z,16.70
2018-10-21T10:41:17.284Z,16.56
2018-10-21T10:42:17.235Z,16.68
2018-10-21T10:43:17.171Z,16.88
2018-10-21T10:44:17.044Z,17.08
2018-10-21T10:45:16.965Z,17.23
2018-10-21T10:46:16.933Z,17.41
2018-10-21T10:47:16.809Z,17.64
2018-10-21T10:48:16.763Z,17.90
2018-10-21T10:49:16.793Z,17.68
2018-10-21T10:50:16.567Z,18.26
2018-10-21T10:51:16.494Z,18.41
2018-10-21T10:52:16.475Z,18.67
2018-10-21T10:53:16.332Z,18.55
2018-10-21T10:54:16.258Z,18.17
2018-10-21T10:55:16.209Z,18.66
2018-10-21T10:56:16.091Z,18.87
2018-10-21T10:57:16.020Z,19.40
2018-10-21T10:58:16.028Z,19.78
2018-10-21T10:59:15.872Z,19.74
2018-10-21T11:00:16.074Z,19.56
2018-10-21T11:01:15.727Z,19.95
2018-10-21T11:02:15.636Z,20.02
2018-10-21T11:03:15.550Z,20.20
2018-10-21T11:04:15.515Z,19.81
2018-10-21T11:05:15.404Z,19.50
2018-10-21T11:06:15.402Z,19.13
2018-10-21T11:07:15.304Z,18.80
2018-10-21T11:08:15.157Z,18.90
2018-10-21T11:09:15.087Z,18.81
2018-10-21T11:10:15.093Z,18.66
2018-10-21T11:11:14.917Z,18.35
2018-10-21T11:12:14.843Z,18.65
2018-10-21T11:13:14.839Z,19.10
2018-10-21T11:14:14.711Z,19.74
2018-10-21T11:15:14.612Z,20.05
2018-10-21T11:16:14.581Z,20.16
2018-10-21T11:17:14.459Z,20.51
2018-10-21T11:18:14.385Z,20.92
2018-10-21T11:19:14.368Z,21.17
2018-10-21T11:20:14.223Z,20.69
2018-10-21T11:21:14.147Z,20.51
2018-10-21T11:22:14.080Z,20.26
2018-10-21T11:23:13.999Z,20.66
2018-10-21T11:24:13.921Z,21.10
2018-10-21T11:25:13.924Z,21.19
2018-10-21T11:26:13.775Z,21.49
2018-10-21T11:27:13.685Z,20.88
2018-10-21T11:28:13.694Z,21.04
2018-10-21T11:29:13.539Z,21.47
2018-10-21T11:30:13.464Z,20.62
2018-10-21T11:31:13.437Z,20.59
2018-10-21T11:32:13.312Z,20.32
2018-10-21T11:33:13.236Z,21.12
2018-10-21T11:34:13.218Z,20.47
2018-10-21T11:35:13.090Z,20.43
2018-10-21T11:36:13.014Z,20.58
2018-10-21T11:37:13.074Z,21.24
2018-10-21T11:38:12.861Z,21.62
2018-10-21T11:39:12.784Z,22.00
2018-10-21T11:40:12.772Z,22.14
2018-10-21T11:41:12.638Z,21.96
2018-10-21T11:42:12.563Z,22.17
2018-10-21T11:43:12.525Z,22.51
2018-10-21T11:44:12.409Z,22.42
2018-10-21T11:45:12.339Z,22.54
2018-10-21T11:46:12.307Z,22.58
2018-10-21T11:47:12.191Z,22.31
2018-10-21T11:48:12.116Z,22.31
2018-10-21T11:49:12.059Z,21.98
2018-10-21T11:50:11.963Z,21.62
2018-10-21T11:51:11.889Z,21.34
2018-10-21T11:52:11.880Z,21.52
2018-10-21T11:53:11.735Z,21.53
2018-10-21T11:54:11.660Z,21.54
2018-10-21T11:55:11.643Z,21.56
2018-10-21T11:56:11.513Z,21.64
2018-10-21T11:57:11.441Z,21.14
2018-10-21T11:58:11.514Z,21.32
2018-10-21T11:59:11.288Z,21.59
2018-10-21T12:00:11.217Z,21.59
2018-10-21T12:01:11.186Z,21.71
2018-10-21T12:02:11.068Z,21.17
2018-10-21T12:03:10.990Z,19.96
2018-10-21T12:04:10.996Z,20.29
2018-10-21T12:05:10.836Z,20.95
2018-10-21T12:06:10.762Z,20.98
2018-10-21T12:07:10.752Z,21.52
2018-10-21T12:08:10.620Z,21.38
2018-10-21T12:09:10.543Z,20.72
2018-10-21T12:10:10.535Z,21.40
2018-10-21T12:11:10.388Z,21.28
2018-10-21T12:12:10.318Z,21.37
2018-10-21T12:13:10.304Z,21.92
2018-10-21T12:14:10.167Z,22.06
2018-10-21T12:15:10.089Z,21.75
2018-10-21T12:16:10.055Z,21.49
2018-10-21T12:17:09.945Z,21.92
2018-10-21T12:18:09.869Z,22.31
2018-10-21T12:19:09.874Z,22.37
2018-10-21T12:20:10.021Z,22.52
2018-10-21T12:21:09.638Z,22.68
2018-10-21T12:22:09.689Z,22.49
2018-10-21T12:23:09.535Z,22.18
2018-10-21T12:24:09.421Z,21.99
2018-10-21T12:25:09.372Z,21.69
2018-10-21T12:26:09.277Z,21.40
2018-10-21T12:27:09.189Z,21.17
2018-10-21T12:28:09.174Z,21.01
2018-10-21T12:29:09.136Z,20.72
2018-10-21T12:30:08.980Z,21.09
2018-10-21T12:31:08.945Z,21.49
2018-10-21T12:32:08.826Z,21.90
2018-10-21T12:33:08.756Z,21.50
2018-10-21T12:34:08.685Z,21.61
2018-10-21T12:35:08.679Z,21.92
2018-10-21T12:36:08.533Z,22.03
2018-10-21T12:37:08.488Z,21.80
2018-10-21T12:38:08.379Z,21.62
2018-10-21T12:39:08.306Z,21.96
2018-10-21T12:40:08.278Z,22.15
2018-10-21T12:41:08.213Z,20.91
2018-10-21T12:42:08.077Z,20.48
2018-10-21T12:43:08.071Z,20.97
2018-10-21T12:44:07.930Z,19.98
2018-10-21T12:45:07.859Z,19.46
2018-10-21T12:46:07.804Z,20.21
2018-10-21T12:47:07.764Z,20.51
2018-10-21T12:48:07.630Z,20.72
2018-10-21T12:49:07.601Z,21.13
2018-10-21T12:50:07.484Z,21.22
2018-10-21T12:51:07.407Z,20.88
2018-10-21T12:52:07.412Z,20.99
2018-10-21T12:53:07.290Z,21.34
2018-10-21T12:54:07.221Z,21.44
2018-10-21T12:55:07.146Z,21.24
2018-10-21T12:56:07.035Z,21.37
2018-10-21T12:57:06.956Z,21.12
2018-10-21T12:58:06.937Z,21.22
2018-10-21T12:59:06.822Z,21.34
2018-10-21T13:00:06.993Z,20.87
2018-10-21T13:01:06.722Z,20.32
2018-10-21T13:02:06.650Z,19.86
2018-10-21T13:03:06.504Z,20.10
2018-10-21T13:04:06.446Z,20.06
2018-10-21T13:05:06.359Z,19.63
2018-10-21T13:06:06.305Z,19.50
2018-10-21T13:07:06.260Z,19.98